Latest Coastal Weather Observations for Redcliffe

IDQ60701

Issued at 10:51 am EST Wednesday 21 February 2018 (issued every 10 minutes, with the page automatically refreshed every 10 minutes)

About coastal observations | Map of coastal stations | Coastal observations for QLD | Marine services | Other Formats
Station Details ID: 040958 Name: REDCLIFFE Lat: -27.22 Lon: 153.09 Height: 12.6 m
Data from the previous 72 hours. | See also: Recent months at Redcliffe
Date/Time
EST
Temp
°C
Wind Pressure Rain since
9am
mm
Weather Cloud Vis
km
Sea
Height
m
Swell
Dir  Spd
kts
Gust
kts
hPa Trend Height
m
Period
s
Dir
21/10:30am 25.9 SE 25 30 1012.8 - 0.0 - - - - - - -
21/10:00am 23.7 ESE 26 31 1013.1 - 0.0 - - - - - - -
21/09:30am 24.1 ESE 24 29 1013.0 - 0.0 - - - - - - -
21/09:00am 24.3 ESE 26 36 1012.8 - 0.4 - - - - - - -
21/08:59am 25.0 ESE 26 36 1012.8 - 0.4 - - - - - - -
21/08:30am 25.9 SE 26 34 1012.2 - 0.4 - - - - - - -
21/08:00am 25.8 SE 29 36 1011.8 - 0.4 - - - - - - -
21/07:30am 25.5 SE 28 34 1011.6 - 0.4 - - - - - - -
21/07:00am 25.5 SE 28 33 1011.5 - 0.4 - - - - - - -
21/06:30am 25.1 SE 26 31 1011.5 - 0.4 - - - - - - -
21/06:00am 24.1 SE 21 26 1011.7 - 0.2 - - - - - - -
21/05:30am 24.4 SE 27 31 1011.0 - 0.2 - - - - - - -
21/05:00am 24.2 SE 25 32 1010.8 - 0.2 - - - - - - -
21/04:30am 23.9 SE 28 33 1010.5 - 0.2 - - - - - - -
21/04:00am 23.8 SE 29 34 1010.6 - 0.2 - - - - - - -
21/03:30am 25.7 SE 24 37 1010.0 - 0.0 - - - - - - -
21/03:29am 25.7 SE 24 37 1010.0 - 0.0 - - - - - - -
21/03:00am 25.7 SE 22 26 1009.8 - 0.0 - - - - - - -
21/02:30am 25.7 SE 24 30 1009.6 - 0.0 - - - - - - -
21/02:00am 25.7 SE 22 27 1009.9 - 0.0 - - - - - - -
21/01:30am 25.6 SE 23 27 1009.8 - 0.0 - - - - - - -
21/01:00am 25.6 SE 23 27 1009.9 - 0.0 - - - - - - -
21/12:30am 25.6 SE 21 25 1010.3 - 0.0 - - - - - - -
21/12:00am 25.6 SE 21 26 1010.2 - 0.0 - - - - - - -
 
Date/Time
EST
Temp
°C
Wind Pressure Rain since
9am
mm
Weather Cloud Vis
km
Sea
Height
m
Swell
Dir  Spd
kts
Gust
kts
hPa Trend Height
m
Period
s
Dir
20/11:30pm 25.5 SE 21 25 1010.3 - 0.0 - - - - - - -
20/11:00pm 25.5 SE 20 25 1010.4 - 0.0 - - - - - - -
20/10:30pm 25.0 SSE 21 26 1010.7 - 0.0 - - - - - - -
20/10:00pm 25.8 SE 23 28 1010.9 - 0.0 - - - - - - -
20/09:30pm 25.8 SE 23 28 1011.0 - 0.0 - - - - - - -
20/09:29pm 25.8 SE 23 28 1011.0 - 0.0 - - - - - - -
20/09:00pm 24.8 SSE 20 26 1011.0 - 0.0 - - - - - - -
20/08:30pm 25.8 SE 22 26 1010.9 - 0.0 - - - - - - -
20/08:00pm 25.8 SE 21 28 1010.9 - 0.0 - - - - - - -
20/07:30pm 25.8 SE 22 28 1010.5 - 0.0 - - - - - - -
20/07:00pm 25.9 SE 21 26 1010.1 - 0.0 - - - - - - -
20/06:30pm 26.0 SE 22 26 1010.0 - 0.0 - - - - - - -
20/06:00pm 26.2 SE 21 26 1009.6 - 0.0 - - - - - - -
20/05:30pm 26.3 SE 21 26 1009.7 - 0.0 - - - - - - -
20/05:00pm 26.7 SE 21 26 1009.7 - 0.0 - - - - - - -
20/04:30pm 26.7 SE 22 27 1009.4 - 0.0 - - - - - - -
20/04:00pm 27.3 SE 22 27 1009.0 - 0.0 - - - - - - -
20/03:30pm 28.0 SE 22 26 1009.1 - 0.0 - - - - - - -
20/03:00pm 27.4 SE 21 26 1008.8 - 0.0 - - - - - - -
20/02:30pm 28.8 SE 23 26 1009.0 - 0.0 - - - - - - -
20/02:00pm 28.5 SSE 22 27 1009.2 - 0.0 - - - - - - -
20/01:30pm 28.8 SSE 19 22 1009.5 - 0.0 - - - - - - -
20/01:00pm 28.6 SSE 19 22 1009.9 - 0.0 - - - - - - -
20/12:30pm 28.1 SSE 21 26 1010.3 - 0.0 - - - - - - -
20/12:00pm 28.4 SSE 22 26 1010.6 - 0.0 - - - - - - -
20/11:30am 27.3 SE 21 26 1010.2 - 0.0 - - - - - - -
20/11:00am 27.5 SSE 21 24 1010.6 - 0.0 - - - - - - -
20/10:30am 28.3 SE 20 22 1010.8 - 0.0 - - - - - - -
20/10:00am 27.3 SSE 17 20 1011.1 - 0.0 - - - - - - -
20/09:30am 27.3 SSE 14 17 1010.9 - 0.0 - - - - - - -
20/09:00am 27.0 SSE 17 20 1011.0 - 0.0 - - - - - - -
20/08:30am 26.4 S 14 18 1010.9 - 0.0 - - - - - - -
20/08:00am 26.1 S 12 16 1010.9 - 0.0 - - - - - - -
20/07:30am 25.6 S 9 14 1010.8 - 0.0 - - - - - - -
20/07:00am 24.8 SSW 9 11 1010.7 - 0.0 - - - - - - -
20/06:30am 24.4 SSW 9 13 1010.5 - 0.0 - - - - - - -
20/06:00am 23.9 SSW 8 10 1010.3 - 0.0 - - - - - - -
20/05:30am 24.4 SSW 10 15 1010.1 - 0.0 - - - - - - -
20/05:00am 24.6 S 13 16 1009.8 - 0.0 - - - - - - -
20/04:30am 25.0 S 17 20 1009.4 - 0.0 - - - - - - -
20/04:00am 25.0 S 14 17 1009.2 - 0.0 - - - - - - -
20/03:30am 25.0 S 15 17 1009.0 - 0.0 - - - - - - -
20/03:00am 25.1 S 15 18 1008.5 - 0.0 - - - - - - -
20/02:30am 25.3 SSE 15 17 1008.4 - 0.0 - - - - - - -
20/02:00am 25.1 SSE 13 15 1008.2 - 0.0 - - - - - - -
20/01:30am 25.3 S 14 17 1009.1 - 0.0 - - - - - - -
20/01:00am 25.4 S 13 16 1009.7 - 0.0 - - - - - - -
20/12:30am 26.1 SSE 13 16 1010.1 - 0.0 - - - - - - -
20/12:00am 26.1 SSE 11 15 1010.4 - 0.0 - - - - - - -
 
Date/Time
EST
Temp
°C
Wind Pressure Rain since
9am
mm
Weather Cloud Vis
km
Sea
Height
m
Swell
Dir  Spd
kts
Gust
kts
hPa Trend Height
m
Period
s
Dir
19/11:30pm 26.2 SSE 12 15 1010.5 - 0.0 - - - - - - -
19/11:00pm 26.2 SE 13 16 1010.4 - 0.0 - - - - - - -
19/10:30pm 26.2 SE 14 17 1010.1 - 0.0 - - - - - - -
19/10:00pm 26.4 SE 12 15 1010.1 - 0.0 - - - - - - -
19/09:30pm 26.5 SE 15 18 1009.7 - 0.0 - - - - - - -
19/09:00pm 26.4 SE 15 17 1009.4 - 0.0 - - - - - - -
19/08:30pm 26.5 ESE 12 15 1009.6 - 0.0 - - - - - - -
19/08:00pm 26.4 E 10 13 1009.1 - 0.0 - - - - - - -
19/07:30pm 26.4 E 14 16 1008.5 - 0.0 - - - - - - -
19/07:00pm 26.4 ESE 12 15 1008.2 - 0.0 - - - - - - -
19/06:30pm 26.5 E 11 14 1008.1 - 0.0 - - - - - - -
19/06:00pm 26.6 E 11 14 1007.9 - 0.0 - - - - - - -
19/05:30pm 27.0 E 14 17 1007.2 - 0.0 - - - - - - -
19/05:00pm 27.6 E 14 16 1006.4 - 0.0 - - - - - - -
19/04:30pm 28.1 E 13 14 1006.4 - 0.0 - - - - - - -
19/04:00pm 28.2 ENE 11 15 1006.3 - 0.0 - - - - - - -
19/03:30pm 28.8 ENE 10 13 1006.5 - 0.0 - - - - - - -
19/03:00pm 29.5 E 10 12 1006.6 - 0.0 - - - - - - -
19/02:30pm 29.4 ENE 9 11 1007.0 - 0.0 - - - - - - -
19/02:00pm 29.5 ENE 10 13 1007.3 - 0.0 - - - - - - -
19/01:30pm 29.1 E 11 13 1007.6 - 0.0 - - - - - - -
19/01:00pm 29.3 E 10 12 1007.9 - 0.0 - - - - - - -
19/12:30pm 29.3 ENE 9 11 1008.2 - 0.0 - - - - - - -
19/12:00pm 29.1 ENE 8 9 1008.8 - 0.0 - - - - - - -
19/11:30am 28.5 ENE 7 9 1009.2 - 0.0 - - - - - - -
19/11:00am 28.6 ESE 8 9 1009.4 - 0.0 - - - - - - -
19/10:30am 29.5 ESE 7 9 1009.6 - 0.0 - - - - - - -
19/10:00am 28.3 SSE 6 7 1010.0 - 0.0 - - - - - - -
19/09:30am 27.8 SSE 7 9 1010.1 - 0.0 - - - - - - -
19/09:00am 27.8 S 9 12 1010.3 - 0.0 - - - - - - -
19/08:30am 27.0 S 8 10 1010.2 - 0.0 - - - - - - -
19/08:00am 25.9 SSW 7 10 1010.0 - 0.0 - - - - - - -
19/07:30am 24.5 SW 7 9 1010.1 - 0.0 - - - - - - -
19/07:00am 23.1 SW 7 10 1009.8 - 0.0 - - - - - - -
19/06:30am 22.0 SW 8 9 1009.6 - 0.0 - - - - - - -
19/06:00am 21.1 SW 7 9 1009.2 - 0.0 - - - - - - -
19/05:30am 20.9 SW 7 9 1009.0 - 0.0 - - - - - - -
19/05:00am 20.8 SW 6 12 1008.8 - 0.0 - - - - - - -
19/04:30am 21.2 S 13 15 1008.6 - 0.0 - - - - - - -
19/04:00am 21.2 S 11 14 1008.2 - 0.0 - - - - - - -
19/03:30am 21.5 S 12 15 1008.4 - 0.0 - - - - - - -
19/03:00am 21.7 S 13 15 1008.3 - 0.0 - - - - - - -
19/02:30am 21.9 S 11 14 1008.4 - 0.0 - - - - - - -
19/02:00am 22.3 SSW 8 13 1008.6 - 0.0 - - - - - - -
19/01:30am 22.6 SSW 7 10 1009.0 - 0.0 - - - - - - -
19/01:00am 23.2 SSW 9 13 1009.3 - 0.0 - - - - - - -
19/12:30am 23.9 S 12 14 1009.5 - 0.0 - - - - - - -
19/12:00am 24.0 SSW 9 12 1009.8 - 0.0 - - - - - - -
 
Date/Time
EST
Temp
°C
Wind Pressure Rain since
9am
mm
Weather Cloud Vis
km
Sea
Height
m
Swell
Dir  Spd
kts
Gust
kts
hPa Trend Height
m
Period
s
Dir
18/11:30pm 24.7 S 10 17 1010.0 - 0.0 - - - - - - -
18/11:00pm 25.1 S 12 16 1010.1 - 0.0 - - - - - - -
18/10:30pm 25.8 SE 15 18 1010.1 - 0.0 - - - - - - -
18/10:00pm 25.8 SE 16 18 1010.3 - 0.0 - - - - - - -
18/09:30pm 25.8 SE 15 18 1010.6 - 0.0 - - - - - - -
18/09:00pm 25.8 SE 14 16 1010.4 - 0.0 - - - - - - -
18/08:30pm 25.9 SE 15 17 1010.4 - 0.0 - - - - - - -
18/08:00pm 26.1 SE 14 17 1010.3 - 0.0 - - - - - - -
18/07:30pm 26.4 SE 13 16 1010.1 - 0.0 - - - - - - -
18/07:00pm 26.6 SE 12 16 1010.1 - 0.0 - - - - - - -
18/06:30pm 26.9 SE 14 16 1009.9 - 0.0 - - - - - - -
18/06:00pm 27.2 SE 12 15 1009.6 - 0.0 - - - - - - -
18/05:30pm 27.5 ESE 13 16 1009.4 - 0.0 - - - - - - -
18/05:00pm 27.8 SE 14 17 1009.3 - 0.0 - - - - - - -
18/04:30pm 27.9 ESE 14 18 1009.2 - 0.0 - - - - - - -
18/04:00pm 28.6 ESE 15 18 1009.2 - 0.0 - - - - - - -
18/03:30pm 28.5 ESE 16 19 1009.1 - 0.0 - - - - - - -
18/03:00pm 28.6 ESE 16 18 1009.2 - 0.0 - - - - - - -
18/02:30pm 29.5 ESE 16 19 1009.4 - 0.0 - - - - - - -
18/02:00pm 29.2 ESE 17 20 1009.8 - 0.0 - - - - - - -
18/01:30pm 29.7 ESE 17 19 1010.0 - 0.0 - - - - - - -
18/01:00pm 29.6 SE 15 18 1010.2 - 0.0 - - - - - - -
18/12:30pm 29.0 SE 15 17 1010.7 - 0.0 - - - - - - -
18/12:00pm 29.7 SE 13 16 1011.0 - 0.0 - - - - - - -
18/11:30am 29.6 SE 14 16 1011.3 - 0.0 - - - - - - -
18/11:00am 29.8 SE 14 17 1011.6 - 0.0 - - - - - - -

Other Formats:

Comma delimited format used in spreadsheet applications
http://www.bom.gov.au/fwo/IDQ60701/IDQ60701.95591.axf

JavaScript Object Notation format (JSON) in row-major order
http://www.bom.gov.au/fwo/IDQ60701/IDQ60701.95591.json